sensor_id;sensor_type;location;lat;lon;timestamp;P1;durP1;ratioP1;P2;durP2;ratioP2
12155;SDS011;6141;49.092;8.516;2023-07-20T00:00:11;2.50;;;1.60;;
12155;SDS011;6141;49.092;8.516;2023-07-20T00:02:40;2.23;;;1.90;;
12155;SDS011;6141;49.092;8.516;2023-07-20T00:05:08;3.27;;;1.67;;
12155;SDS011;6141;49.092;8.516;2023-07-20T00:07:36;3.23;;;1.77;;
12155;SDS011;6141;49.092;8.516;2023-07-20T00:10:06;3.67;;;1.70;;
12155;SDS011;6141;49.092;8.516;2023-07-20T00:12:35;3.07;;;1.97;;
12155;SDS011;6141;49.092;8.516;2023-07-20T00:15:03;1.97;;;1.73;;
12155;SDS011;6141;49.092;8.516;2023-07-20T00:17:32;4.60;;;2.00;;
12155;SDS011;6141;49.092;8.516;2023-07-20T00:20:00;3.43;;;1.80;;
12155;SDS011;6141;49.092;8.516;2023-07-20T00:22:28;2.57;;;1.53;;
12155;SDS011;6141;49.092;8.516;2023-07-20T00:24:56;2.37;;;1.70;;
12155;SDS011;6141;49.092;8.516;2023-07-20T00:27:25;3.87;;;1.87;;
12155;SDS011;6141;49.092;8.516;2023-07-20T00:29:54;3.33;;;1.80;;
12155;SDS011;6141;49.092;8.516;2023-07-20T00:32:22;2.90;;;1.83;;
12155;SDS011;6141;49.092;8.516;2023-07-20T00:34:50;2.50;;;1.90;;
12155;SDS011;6141;49.092;8.516;2023-07-20T00:37:18;3.27;;;1.83;;
12155;SDS011;6141;49.092;8.516;2023-07-20T00:39:46;2.90;;;1.77;;
12155;SDS011;6141;49.092;8.516;2023-07-20T00:42:14;2.60;;;1.80;;
12155;SDS011;6141;49.092;8.516;2023-07-20T00:44:45;2.10;;;1.90;;
12155;SDS011;6141;49.092;8.516;2023-07-20T00:47:13;2.90;;;1.90;;
12155;SDS011;6141;49.092;8.516;2023-07-20T00:49:41;2.80;;;1.70;;
12155;SDS011;6141;49.092;8.516;2023-07-20T00:52:10;3.97;;;1.90;;
12155;SDS011;6141;49.092;8.516;2023-07-20T00:54:41;1.90;;;1.53;;
12155;SDS011;6141;49.092;8.516;2023-07-20T00:57:11;3.23;;;2.30;;
12155;SDS011;6141;49.092;8.516;2023-07-20T00:59:41;4.97;;;1.90;;
12155;SDS011;6141;49.092;8.516;2023-07-20T01:02:11;3.93;;;2.10;;
12155;SDS011;6141;49.092;8.516;2023-07-20T01:04:39;3.03;;;1.70;;
12155;SDS011;6141;49.092;8.516;2023-07-20T01:07:09;6.10;;;2.17;;
12155;SDS011;6141;49.092;8.516;2023-07-20T01:09:42;2.00;;;1.73;;
12155;SDS011;6141;49.092;8.516;2023-07-20T01:12:18;3.00;;;1.70;;
12155;SDS011;6141;49.092;8.516;2023-07-20T01:14:53;2.87;;;1.87;;
12155;SDS011;6141;49.092;8.516;2023-07-20T01:17:23;2.10;;;1.90;;
12155;SDS011;6141;49.092;8.516;2023-07-20T01:19:51;2.80;;;1.87;;
12155;SDS011;6141;49.092;8.516;2023-07-20T01:22:21;6.20;;;2.27;;
12155;SDS011;6141;49.092;8.516;2023-07-20T01:25:08;4.33;;;2.10;;
12155;SDS011;6141;49.092;8.516;2023-07-20T01:28:01;3.60;;;2.03;;
12155;SDS011;6141;49.092;8.516;2023-07-20T01:30:59;3.27;;;2.10;;
12155;SDS011;6141;49.092;8.516;2023-07-20T01:33:41;3.00;;;1.97;;
12155;SDS011;6141;49.092;8.516;2023-07-20T01:36:11;2.83;;;2.10;;
12155;SDS011;6141;49.092;8.516;2023-07-20T01:38:39;4.17;;;2.00;;
12155;SDS011;6141;49.092;8.516;2023-07-20T01:41:09;2.40;;;1.73;;
12155;SDS011;6141;49.092;8.516;2023-07-20T01:43:38;3.10;;;1.93;;
12155;SDS011;6141;49.092;8.516;2023-07-20T01:46:07;5.60;;;2.00;;
12155;SDS011;6141;49.092;8.516;2023-07-20T01:48:37;2.33;;;2.00;;
12155;SDS011;6141;49.092;8.516;2023-07-20T01:51:05;5.17;;;2.10;;
12155;SDS011;6141;49.092;8.516;2023-07-20T01:53:33;2.33;;;1.80;;
12155;SDS011;6141;49.092;8.516;2023-07-20T01:56:01;2.03;;;1.80;;
12155;SDS011;6141;49.092;8.516;2023-07-20T01:58:29;2.07;;;1.87;;
12155;SDS011;6141;49.092;8.516;2023-07-20T02:00:57;4.20;;;1.60;;
12155;SDS011;6141;49.092;8.516;2023-07-20T02:03:25;2.83;;;2.20;;
12155;SDS011;6141;49.092;8.516;2023-07-20T02:05:54;2.07;;;1.80;;
12155;SDS011;6141;49.092;8.516;2023-07-20T02:08:24;3.63;;;2.00;;
12155;SDS011;6141;49.092;8.516;2023-07-20T02:10:56;2.90;;;2.00;;
12155;SDS011;6141;49.092;8.516;2023-07-20T02:13:24;3.03;;;1.93;;
12155;SDS011;6141;49.092;8.516;2023-07-20T02:15:52;7.07;;;2.20;;
12155;SDS011;6141;49.092;8.516;2023-07-20T02:18:20;4.53;;;2.20;;
12155;SDS011;6141;49.092;8.516;2023-07-20T02:20:49;2.63;;;2.00;;
12155;SDS011;6141;49.092;8.516;2023-07-20T02:23:19;4.10;;;1.97;;
12155;SDS011;6141;49.092;8.516;2023-07-20T02:25:47;2.80;;;2.00;;
12155;SDS011;6141;49.092;8.516;2023-07-20T02:28:15;4.43;;;2.23;;
12155;SDS011;6141;49.092;8.516;2023-07-20T02:30:43;2.37;;;2.00;;
12155;SDS011;6141;49.092;8.516;2023-07-20T02:33:12;3.20;;;2.20;;
12155;SDS011;6141;49.092;8.516;2023-07-20T02:35:40;2.50;;;1.70;;
12155;SDS011;6141;49.092;8.516;2023-07-20T02:38:08;2.37;;;1.80;;
12155;SDS011;6141;49.092;8.516;2023-07-20T02:40:37;3.83;;;2.00;;
12155;SDS011;6141;49.092;8.516;2023-07-20T02:43:07;3.57;;;2.13;;
12155;SDS011;6141;49.092;8.516;2023-07-20T02:45:39;2.63;;;2.00;;
12155;SDS011;6141;49.092;8.516;2023-07-20T02:48:08;3.60;;;2.50;;
12155;SDS011;6141;49.092;8.516;2023-07-20T02:50:36;3.93;;;2.20;;
12155;SDS011;6141;49.092;8.516;2023-07-20T02:53:05;2.50;;;2.00;;
12155;SDS011;6141;49.092;8.516;2023-07-20T02:55:33;5.53;;;2.43;;
12155;SDS011;6141;49.092;8.516;2023-07-20T02:58:02;2.17;;;1.93;;
12155;SDS011;6141;49.092;8.516;2023-07-20T03:00:30;2.37;;;2.10;;
12155;SDS011;6141;49.092;8.516;2023-07-20T03:02:58;2.60;;;2.10;;
12155;SDS011;6141;49.092;8.516;2023-07-20T03:05:27;2.83;;;2.37;;
12155;SDS011;6141;49.092;8.516;2023-07-20T03:07:55;2.57;;;1.90;;
12155;SDS011;6141;49.092;8.516;2023-07-20T03:10:23;2.80;;;2.10;;
12155;SDS011;6141;49.092;8.516;2023-07-20T03:12:51;5.37;;;2.33;;
12155;SDS011;6141;49.092;8.516;2023-07-20T03:15:20;3.00;;;2.47;;
12155;SDS011;6141;49.092;8.516;2023-07-20T03:17:48;3.60;;;2.23;;
12155;SDS011;6141;49.092;8.516;2023-07-20T03:20:18;2.47;;;2.10;;
12155;SDS011;6141;49.092;8.516;2023-07-20T03:22:46;3.53;;;2.33;;
12155;SDS011;6141;49.092;8.516;2023-07-20T03:25:14;3.60;;;2.40;;
12155;SDS011;6141;49.092;8.516;2023-07-20T03:27:42;3.60;;;2.43;;
12155;SDS011;6141;49.092;8.516;2023-07-20T03:30:10;3.87;;;2.50;;
12155;SDS011;6141;49.092;8.516;2023-07-20T03:32:40;3.83;;;2.40;;
12155;SDS011;6141;49.092;8.516;2023-07-20T03:35:09;3.53;;;2.33;;
12155;SDS011;6141;49.092;8.516;2023-07-20T03:37:37;3.47;;;2.60;;
12155;SDS011;6141;49.092;8.516;2023-07-20T03:40:06;3.30;;;2.23;;
12155;SDS011;6141;49.092;8.516;2023-07-20T03:42:35;3.47;;;2.53;;
12155;SDS011;6141;49.092;8.516;2023-07-20T03:45:05;4.63;;;2.40;;
12155;SDS011;6141;49.092;8.516;2023-07-20T03:47:35;4.63;;;2.10;;
12155;SDS011;6141;49.092;8.516;2023-07-20T03:50:06;2.97;;;2.37;;
12155;SDS011;6141;49.092;8.516;2023-07-20T03:52:36;3.67;;;2.10;;
12155;SDS011;6141;49.092;8.516;2023-07-20T03:55:04;2.90;;;1.93;;
12155;SDS011;6141;49.092;8.516;2023-07-20T03:57:33;3.40;;;2.47;;
12155;SDS011;6141;49.092;8.516;2023-07-20T04:00:01;2.87;;;2.47;;
12155;SDS011;6141;49.092;8.516;2023-07-20T04:02:38;2.93;;;2.20;;
12155;SDS011;6141;49.092;8.516;2023-07-20T04:05:08;2.80;;;2.50;;
12155;SDS011;6141;49.092;8.516;2023-07-20T04:07:36;3.83;;;2.53;;
12155;SDS011;6141;49.092;8.516;2023-07-20T04:10:05;4.87;;;2.50;;
12155;SDS011;6141;49.092;8.516;2023-07-20T04:12:34;5.23;;;2.20;;
12155;SDS011;6141;49.092;8.516;2023-07-20T04:15:03;4.10;;;2.63;;
12155;SDS011;6141;49.092;8.516;2023-07-20T04:17:32;4.43;;;2.50;;
12155;SDS011;6141;49.092;8.516;2023-07-20T04:20:01;4.43;;;2.60;;
12155;SDS011;6141;49.092;8.516;2023-07-20T04:22:30;2.80;;;2.37;;
12155;SDS011;6141;49.092;8.516;2023-07-20T04:24:58;5.23;;;2.87;;
12155;SDS011;6141;49.092;8.516;2023-07-20T04:27:27;3.00;;;2.57;;
12155;SDS011;6141;49.092;8.516;2023-07-20T04:29:55;2.90;;;2.30;;
12155;SDS011;6141;49.092;8.516;2023-07-20T04:32:23;4.40;;;2.50;;
12155;SDS011;6141;49.092;8.516;2023-07-20T04:34:51;3.90;;;2.70;;
12155;SDS011;6141;49.092;8.516;2023-07-20T04:37:20;3.27;;;2.80;;
12155;SDS011;6141;49.092;8.516;2023-07-20T04:39:49;3.53;;;2.60;;
12155;SDS011;6141;49.092;8.516;2023-07-20T04:42:17;3.57;;;2.67;;
12155;SDS011;6141;49.092;8.516;2023-07-20T04:44:46;4.60;;;2.53;;
12155;SDS011;6141;49.092;8.516;2023-07-20T04:47:15;4.13;;;2.80;;
12155;SDS011;6141;49.092;8.516;2023-07-20T04:49:43;5.13;;;2.87;;
12155;SDS011;6141;49.092;8.516;2023-07-20T04:52:11;6.40;;;2.47;;
12155;SDS011;6141;49.092;8.516;2023-07-20T04:54:39;4.83;;;2.30;;
12155;SDS011;6141;49.092;8.516;2023-07-20T04:57:12;5.03;;;2.60;;
12155;SDS011;6141;49.092;8.516;2023-07-20T04:59:45;5.13;;;2.80;;
12155;SDS011;6141;49.092;8.516;2023-07-20T05:02:13;4.50;;;2.60;;
12155;SDS011;6141;49.092;8.516;2023-07-20T05:04:41;3.07;;;2.60;;
12155;SDS011;6141;49.092;8.516;2023-07-20T05:07:09;2.73;;;2.50;;
12155;SDS011;6141;49.092;8.516;2023-07-20T05:09:37;3.67;;;2.33;;
12155;SDS011;6141;49.092;8.516;2023-07-20T05:12:05;5.03;;;2.97;;
12155;SDS011;6141;49.092;8.516;2023-07-20T05:14:36;3.27;;;2.70;;
12155;SDS011;6141;49.092;8.516;2023-07-20T05:17:04;4.83;;;2.57;;
12155;SDS011;6141;49.092;8.516;2023-07-20T05:19:33;3.93;;;2.67;;
12155;SDS011;6141;49.092;8.516;2023-07-20T05:22:01;4.93;;;2.80;;
12155;SDS011;6141;49.092;8.516;2023-07-20T05:24:29;5.27;;;2.90;;
12155;SDS011;6141;49.092;8.516;2023-07-20T05:26:57;2.70;;;2.50;;
12155;SDS011;6141;49.092;8.516;2023-07-20T05:29:26;3.17;;;2.73;;
12155;SDS011;6141;49.092;8.516;2023-07-20T05:31:55;3.77;;;2.77;;
12155;SDS011;6141;49.092;8.516;2023-07-20T05:34:23;3.47;;;2.70;;
12155;SDS011;6141;49.092;8.516;2023-07-20T05:36:52;5.37;;;2.70;;
12155;SDS011;6141;49.092;8.516;2023-07-20T05:39:20;4.00;;;2.70;;
12155;SDS011;6141;49.092;8.516;2023-07-20T05:41:48;3.13;;;2.63;;
12155;SDS011;6141;49.092;8.516;2023-07-20T05:44:16;4.43;;;2.70;;
12155;SDS011;6141;49.092;8.516;2023-07-20T05:46:44;5.93;;;2.80;;
12155;SDS011;6141;49.092;8.516;2023-07-20T05:49:24;4.10;;;2.50;;
12155;SDS011;6141;49.092;8.516;2023-07-20T05:51:53;4.47;;;2.57;;
12155;SDS011;6141;49.092;8.516;2023-07-20T05:54:21;4.10;;;2.63;;
12155;SDS011;6141;49.092;8.516;2023-07-20T05:56:49;2.87;;;2.50;;
12155;SDS011;6141;49.092;8.516;2023-07-20T05:59:17;3.43;;;2.50;;
12155;SDS011;6141;49.092;8.516;2023-07-20T06:01:46;4.37;;;2.63;;
12155;SDS011;6141;49.092;8.516;2023-07-20T06:04:15;3.73;;;2.20;;
12155;SDS011;6141;49.092;8.516;2023-07-20T06:06:44;4.93;;;2.67;;
12155;SDS011;6141;49.092;8.516;2023-07-20T06:09:12;3.30;;;2.50;;
12155;SDS011;6141;49.092;8.516;2023-07-20T06:11:42;4.63;;;2.60;;
12155;SDS011;6141;49.092;8.516;2023-07-20T06:14:10;5.33;;;2.43;;
12155;SDS011;6141;49.092;8.516;2023-07-20T06:16:38;3.57;;;2.60;;
12155;SDS011;6141;49.092;8.516;2023-07-20T06:19:06;4.40;;;2.33;;
12155;SDS011;6141;49.092;8.516;2023-07-20T06:21:34;5.20;;;2.40;;
12155;SDS011;6141;49.092;8.516;2023-07-20T06:24:04;4.80;;;2.27;;
12155;SDS011;6141;49.092;8.516;2023-07-20T06:26:32;4.73;;;2.40;;
12155;SDS011;6141;49.092;8.516;2023-07-20T06:29:05;4.63;;;2.63;;
12155;SDS011;6141;49.092;8.516;2023-07-20T06:31:33;4.07;;;2.73;;
12155;SDS011;6141;49.092;8.516;2023-07-20T06:34:02;3.73;;;2.50;;
12155;SDS011;6141;49.092;8.516;2023-07-20T06:36:30;5.73;;;2.30;;
12155;SDS011;6141;49.092;8.516;2023-07-20T06:38:58;7.00;;;2.10;;
12155;SDS011;6141;49.092;8.516;2023-07-20T06:41:31;6.13;;;2.57;;
12155;SDS011;6141;49.092;8.516;2023-07-20T06:44:02;4.70;;;2.50;;
12155;SDS011;6141;49.092;8.516;2023-07-20T06:46:31;4.87;;;2.27;;
12155;SDS011;6141;49.092;8.516;2023-07-20T06:48:59;6.57;;;2.40;;
12155;SDS011;6141;49.092;8.516;2023-07-20T06:51:30;4.23;;;2.00;;
12155;SDS011;6141;49.092;8.516;2023-07-20T06:53:58;6.43;;;2.40;;
12155;SDS011;6141;49.092;8.516;2023-07-20T06:56:26;7.93;;;3.10;;
12155;SDS011;6141;49.092;8.516;2023-07-20T06:58:58;5.03;;;2.40;;
12155;SDS011;6141;49.092;8.516;2023-07-20T07:01:26;6.33;;;2.83;;
12155;SDS011;6141;49.092;8.516;2023-07-20T07:03:54;3.27;;;2.40;;
12155;SDS011;6141;49.092;8.516;2023-07-20T07:06:23;3.57;;;2.60;;
12155;SDS011;6141;49.092;8.516;2023-07-20T07:08:52;4.20;;;2.20;;
12155;SDS011;6141;49.092;8.516;2023-07-20T07:11:20;3.17;;;2.40;;
12155;SDS011;6141;49.092;8.516;2023-07-20T07:13:50;4.37;;;2.40;;
12155;SDS011;6141;49.092;8.516;2023-07-20T07:16:20;7.10;;;2.77;;
12155;SDS011;6141;49.092;8.516;2023-07-20T07:18:49;3.70;;;2.37;;
12155;SDS011;6141;49.092;8.516;2023-07-20T07:21:18;4.73;;;2.27;;
12155;SDS011;6141;49.092;8.516;2023-07-20T07:23:48;4.60;;;2.60;;
12155;SDS011;6141;49.092;8.516;2023-07-20T07:26:16;5.03;;;2.80;;
12155;SDS011;6141;49.092;8.516;2023-07-20T07:28:51;4.90;;;2.53;;
12155;SDS011;6141;49.092;8.516;2023-07-20T07:31:21;5.00;;;2.30;;
12155;SDS011;6141;49.092;8.516;2023-07-20T07:33:49;3.67;;;2.60;;
12155;SDS011;6141;49.092;8.516;2023-07-20T07:36:17;5.77;;;2.27;;
12155;SDS011;6141;49.092;8.516;2023-07-20T07:38:46;3.13;;;2.40;;
12155;SDS011;6141;49.092;8.516;2023-07-20T07:41:34;2.90;;;1.80;;
12155;SDS011;6141;49.092;8.516;2023-07-20T07:44:02;2.40;;;1.90;;
12155;SDS011;6141;49.092;8.516;2023-07-20T07:46:32;3.17;;;2.00;;
12155;SDS011;6141;49.092;8.516;2023-07-20T07:49:01;3.67;;;1.93;;
12155;SDS011;6141;49.092;8.516;2023-07-20T07:51:29;4.37;;;2.10;;
12155;SDS011;6141;49.092;8.516;2023-07-20T07:53:57;2.77;;;1.90;;
12155;SDS011;6141;49.092;8.516;2023-07-20T07:56:25;2.03;;;1.77;;
12155;SDS011;6141;49.092;8.516;2023-07-20T07:58:53;4.40;;;2.00;;
12155;SDS011;6141;49.092;8.516;2023-07-20T08:01:21;3.07;;;1.97;;
12155;SDS011;6141;49.092;8.516;2023-07-20T08:03:51;3.63;;;1.87;;
12155;SDS011;6141;49.092;8.516;2023-07-20T08:06:19;4.90;;;2.17;;
12155;SDS011;6141;49.092;8.516;2023-07-20T08:08:47;3.00;;;1.90;;
12155;SDS011;6141;49.092;8.516;2023-07-20T08:11:15;3.00;;;2.03;;
12155;SDS011;6141;49.092;8.516;2023-07-20T08:13:44;7.73;;;2.40;;
12155;SDS011;6141;49.092;8.516;2023-07-20T08:16:12;4.20;;;2.23;;
12155;SDS011;6141;49.092;8.516;2023-07-20T08:18:41;5.77;;;1.90;;
12155;SDS011;6141;49.092;8.516;2023-07-20T08:21:10;4.93;;;2.00;;
12155;SDS011;6141;49.092;8.516;2023-07-20T08:23:39;4.07;;;2.07;;
12155;SDS011;6141;49.092;8.516;2023-07-20T08:26:07;4.53;;;2.00;;
12155;SDS011;6141;49.092;8.516;2023-07-20T08:28:35;3.60;;;1.77;;
12155;SDS011;6141;49.092;8.516;2023-07-20T08:31:05;6.23;;;2.30;;
12155;SDS011;6141;49.092;8.516;2023-07-20T08:33:33;3.73;;;2.10;;
12155;SDS011;6141;49.092;8.516;2023-07-20T08:36:02;3.80;;;2.57;;
12155;SDS011;6141;49.092;8.516;2023-07-20T08:38:31;5.83;;;2.77;;
12155;SDS011;6141;49.092;8.516;2023-07-20T08:40:59;6.57;;;2.40;;
12155;SDS011;6141;49.092;8.516;2023-07-20T08:43:28;3.77;;;2.03;;
12155;SDS011;6141;49.092;8.516;2023-07-20T08:45:57;2.97;;;2.23;;
12155;SDS011;6141;49.092;8.516;2023-07-20T08:48:26;5.20;;;2.20;;
12155;SDS011;6141;49.092;8.516;2023-07-20T08:50:57;4.43;;;2.13;;
12155;SDS011;6141;49.092;8.516;2023-07-20T08:53:27;5.60;;;2.00;;
12155;SDS011;6141;49.092;8.516;2023-07-20T08:55:58;4.47;;;2.07;;
12155;SDS011;6141;49.092;8.516;2023-07-20T08:58:27;2.87;;;2.07;;
12155;SDS011;6141;49.092;8.516;2023-07-20T09:00:55;3.17;;;2.10;;
12155;SDS011;6141;49.092;8.516;2023-07-20T09:03:25;4.27;;;2.30;;
12155;SDS011;6141;49.092;8.516;2023-07-20T09:05:54;3.13;;;2.30;;
12155;SDS011;6141;49.092;8.516;2023-07-20T09:08:22;3.03;;;2.00;;
12155;SDS011;6141;49.092;8.516;2023-07-20T09:10:51;2.87;;;1.60;;
12155;SDS011;6141;49.092;8.516;2023-07-20T09:13:20;2.70;;;1.70;;
12155;SDS011;6141;49.092;8.516;2023-07-20T09:15:52;6.33;;;2.07;;
12155;SDS011;6141;49.092;8.516;2023-07-20T09:18:24;2.77;;;1.60;;
12155;SDS011;6141;49.092;8.516;2023-07-20T09:20:53;2.33;;;1.63;;
12155;SDS011;6141;49.092;8.516;2023-07-20T09:23:29;3.80;;;1.73;;
12155;SDS011;6141;49.092;8.516;2023-07-20T09:25:58;2.40;;;1.83;;
12155;SDS011;6141;49.092;8.516;2023-07-20T09:28:28;2.87;;;1.63;;
12155;SDS011;6141;49.092;8.516;2023-07-20T09:30:57;3.90;;;2.03;;
12155;SDS011;6141;49.092;8.516;2023-07-20T09:33:25;2.20;;;1.77;;
12155;SDS011;6141;49.092;8.516;2023-07-20T09:35:54;4.57;;;1.70;;
12155;SDS011;6141;49.092;8.516;2023-07-20T09:38:48;5.07;;;1.60;;
12155;SDS011;6141;49.092;8.516;2023-07-20T09:41:21;3.30;;;1.70;;
12155;SDS011;6141;49.092;8.516;2023-07-20T09:43:53;3.97;;;1.87;;
12155;SDS011;6141;49.092;8.516;2023-07-20T09:46:22;3.07;;;1.77;;
12155;SDS011;6141;49.092;8.516;2023-07-20T09:48:53;2.53;;;1.80;;
12155;SDS011;6141;49.092;8.516;2023-07-20T09:51:24;3.60;;;1.83;;
12155;SDS011;6141;49.092;8.516;2023-07-20T09:53:52;2.17;;;1.60;;
12155;SDS011;6141;49.092;8.516;2023-07-20T09:56:21;3.57;;;1.50;;
12155;SDS011;6141;49.092;8.516;2023-07-20T09:58:51;2.47;;;1.50;;
12155;SDS011;6141;49.092;8.516;2023-07-20T10:01:21;2.20;;;1.50;;
12155;SDS011;6141;49.092;8.516;2023-07-20T10:03:52;2.60;;;1.60;;
12155;SDS011;6141;49.092;8.516;2023-07-20T10:06:23;3.03;;;1.70;;
12155;SDS011;6141;49.092;8.516;2023-07-20T10:08:52;3.27;;;2.10;;
12155;SDS011;6141;49.092;8.516;2023-07-20T10:11:22;3.67;;;1.80;;
12155;SDS011;6141;49.092;8.516;2023-07-20T10:13:53;1.97;;;1.60;;
12155;SDS011;6141;49.092;8.516;2023-07-20T10:16:26;1.93;;;1.40;;
12155;SDS011;6141;49.092;8.516;2023-07-20T10:18:59;1.57;;;1.20;;
12155;SDS011;6141;49.092;8.516;2023-07-20T10:21:46;1.90;;;1.40;;
12155;SDS011;6141;49.092;8.516;2023-07-20T10:24:22;3.30;;;1.40;;
12155;SDS011;6141;49.092;8.516;2023-07-20T10:26:51;1.90;;;1.60;;
12155;SDS011;6141;49.092;8.516;2023-07-20T10:29:19;2.67;;;1.50;;
12155;SDS011;6141;49.092;8.516;2023-07-20T10:31:49;4.07;;;1.70;;
12155;SDS011;6141;49.092;8.516;2023-07-20T10:34:21;3.87;;;1.87;;
12155;SDS011;6141;49.092;8.516;2023-07-20T10:36:50;2.30;;;1.40;;
12155;SDS011;6141;49.092;8.516;2023-07-20T10:39:22;1.70;;;1.60;;
12155;SDS011;6141;49.092;8.516;2023-07-20T10:41:53;2.10;;;1.40;;
12155;SDS011;6141;49.092;8.516;2023-07-20T10:44:28;2.40;;;1.47;;
12155;SDS011;6141;49.092;8.516;2023-07-20T10:47:02;5.13;;;1.50;;
12155;SDS011;6141;49.092;8.516;2023-07-20T10:49:32;2.53;;;1.43;;
12155;SDS011;6141;49.092;8.516;2023-07-20T10:52:04;2.07;;;1.60;;
12155;SDS011;6141;49.092;8.516;2023-07-20T10:54:48;4.33;;;1.53;;
12155;SDS011;6141;49.092;8.516;2023-07-20T10:57:24;2.17;;;1.40;;
12155;SDS011;6141;49.092;8.516;2023-07-20T11:00:06;2.73;;;1.50;;
12155;SDS011;6141;49.092;8.516;2023-07-20T11:02:48;1.90;;;1.43;;
12155;SDS011;6141;49.092;8.516;2023-07-20T11:05:31;2.87;;;1.70;;
12155;SDS011;6141;49.092;8.516;2023-07-20T11:08:03;2.60;;;1.40;;
12155;SDS011;6141;49.092;8.516;2023-07-20T11:10:32;2.33;;;1.40;;
12155;SDS011;6141;49.092;8.516;2023-07-20T11:13:16;2.07;;;1.43;;
12155;SDS011;6141;49.092;8.516;2023-07-20T11:15:45;4.43;;;1.63;;
12155;SDS011;6141;49.092;8.516;2023-07-20T11:18:15;2.53;;;1.80;;
12155;SDS011;6141;49.092;8.516;2023-07-20T11:20:49;3.33;;;1.70;;
12155;SDS011;6141;49.092;8.516;2023-07-20T11:23:18;1.87;;;1.60;;
12155;SDS011;6141;49.092;8.516;2023-07-20T11:25:47;4.07;;;1.67;;
12155;SDS011;6141;49.092;8.516;2023-07-20T11:28:16;3.03;;;1.60;;
12155;SDS011;6141;49.092;8.516;2023-07-20T11:30:44;4.07;;;1.60;;
12155;SDS011;6141;49.092;8.516;2023-07-20T11:33:13;1.90;;;1.40;;
12155;SDS011;6141;49.092;8.516;2023-07-20T11:35:43;2.23;;;1.73;;
12155;SDS011;6141;49.092;8.516;2023-07-20T11:38:12;2.13;;;1.40;;
12155;SDS011;6141;49.092;8.516;2023-07-20T11:40:44;1.43;;;1.20;;
12155;SDS011;6141;49.092;8.516;2023-07-20T11:43:13;2.60;;;1.40;;
12155;SDS011;6141;49.092;8.516;2023-07-20T11:45:44;2.97;;;1.50;;
12155;SDS011;6141;49.092;8.516;2023-07-20T11:48:14;1.60;;;1.40;;
12155;SDS011;6141;49.092;8.516;2023-07-20T11:50:44;2.63;;;1.57;;
12155;SDS011;6141;49.092;8.516;2023-07-20T11:53:13;2.83;;;1.60;;
12155;SDS011;6141;49.092;8.516;2023-07-20T11:55:43;4.23;;;1.53;;
12155;SDS011;6141;49.092;8.516;2023-07-20T11:58:12;1.90;;;1.50;;
12155;SDS011;6141;49.092;8.516;2023-07-20T12:00:43;2.07;;;1.30;;
12155;SDS011;6141;49.092;8.516;2023-07-20T12:03:12;3.37;;;1.40;;
12155;SDS011;6141;49.092;8.516;2023-07-20T12:05:40;2.60;;;1.53;;
12155;SDS011;6141;49.092;8.516;2023-07-20T12:08:28;4.53;;;1.67;;
12155;SDS011;6141;49.092;8.516;2023-07-20T12:10:56;2.80;;;1.40;;
12155;SDS011;6141;49.092;8.516;2023-07-20T12:13:34;2.87;;;1.47;;
12155;SDS011;6141;49.092;8.516;2023-07-20T12:16:08;2.70;;;1.50;;
12155;SDS011;6141;49.092;8.516;2023-07-20T12:18:38;3.13;;;1.40;;
12155;SDS011;6141;49.092;8.516;2023-07-20T12:21:06;1.53;;;1.33;;
12155;SDS011;6141;49.092;8.516;2023-07-20T12:23:36;1.53;;;1.30;;
12155;SDS011;6141;49.092;8.516;2023-07-20T12:26:06;1.50;;;1.37;;
12155;SDS011;6141;49.092;8.516;2023-07-20T12:28:38;2.70;;;1.47;;
12155;SDS011;6141;49.092;8.516;2023-07-20T12:31:08;2.00;;;1.07;;
12155;SDS011;6141;49.092;8.516;2023-07-20T12:33:37;1.63;;;1.30;;
12155;SDS011;6141;49.092;8.516;2023-07-20T12:36:05;3.07;;;1.47;;
12155;SDS011;6141;49.092;8.516;2023-07-20T12:38:33;2.30;;;1.33;;
12155;SDS011;6141;49.092;8.516;2023-07-20T12:41:03;2.00;;;1.20;;
12155;SDS011;6141;49.092;8.516;2023-07-20T12:43:31;4.17;;;1.40;;
12155;SDS011;6141;49.092;8.516;2023-07-20T12:45:59;2.10;;;1.37;;
12155;SDS011;6141;49.092;8.516;2023-07-20T12:48:27;2.70;;;1.20;;
12155;SDS011;6141;49.092;8.516;2023-07-20T12:50:56;1.73;;;1.30;;
12155;SDS011;6141;49.092;8.516;2023-07-20T12:53:24;2.10;;;1.30;;
12155;SDS011;6141;49.092;8.516;2023-07-20T12:55:53;2.93;;;1.50;;
12155;SDS011;6141;49.092;8.516;2023-07-20T12:58:22;1.93;;;1.20;;
12155;SDS011;6141;49.092;8.516;2023-07-20T13:00:51;1.80;;;1.50;;
12155;SDS011;6141;49.092;8.516;2023-07-20T13:03:19;2.00;;;1.43;;
12155;SDS011;6141;49.092;8.516;2023-07-20T13:05:50;1.97;;;1.50;;
12155;SDS011;6141;49.092;8.516;2023-07-20T13:08:21;2.17;;;1.40;;
12155;SDS011;6141;49.092;8.516;2023-07-20T13:10:51;1.37;;;1.13;;
12155;SDS011;6141;49.092;8.516;2023-07-20T13:13:20;1.90;;;1.30;;
12155;SDS011;6141;49.092;8.516;2023-07-20T13:15:49;1.80;;;1.30;;
12155;SDS011;6141;49.092;8.516;2023-07-20T13:18:17;2.27;;;1.30;;
12155;SDS011;6141;49.092;8.516;2023-07-20T13:20:46;2.33;;;1.27;;
12155;SDS011;6141;49.092;8.516;2023-07-20T13:23:14;2.27;;;1.40;;
12155;SDS011;6141;49.092;8.516;2023-07-20T13:25:42;2.67;;;1.30;;
12155;SDS011;6141;49.092;8.516;2023-07-20T13:28:10;1.67;;;1.40;;
12155;SDS011;6141;49.092;8.516;2023-07-20T13:30:39;3.93;;;1.27;;
12155;SDS011;6141;49.092;8.516;2023-07-20T13:33:08;3.27;;;1.47;;
12155;SDS011;6141;49.092;8.516;2023-07-20T13:35:43;2.10;;;1.20;;
12155;SDS011;6141;49.092;8.516;2023-07-20T13:38:13;1.70;;;1.30;;
12155;SDS011;6141;49.092;8.516;2023-07-20T13:40:42;1.60;;;1.23;;
12155;SDS011;6141;49.092;8.516;2023-07-20T13:43:11;2.17;;;1.47;;
12155;SDS011;6141;49.092;8.516;2023-07-20T13:45:39;1.90;;;1.40;;
12155;SDS011;6141;49.092;8.516;2023-07-20T13:48:09;3.53;;;1.47;;
12155;SDS011;6141;49.092;8.516;2023-07-20T13:50:37;3.77;;;1.53;;
12155;SDS011;6141;49.092;8.516;2023-07-20T13:53:24;2.10;;;1.40;;
12155;SDS011;6141;49.092;8.516;2023-07-20T13:55:56;2.70;;;1.30;;
12155;SDS011;6141;49.092;8.516;2023-07-20T13:58:28;1.90;;;1.23;;
12155;SDS011;6141;49.092;8.516;2023-07-20T14:00:57;1.80;;;1.30;;
12155;SDS011;6141;49.092;8.516;2023-07-20T14:03:27;1.43;;;1.30;;
12155;SDS011;6141;49.092;8.516;2023-07-20T14:05:55;1.93;;;1.27;;
12155;SDS011;6141;49.092;8.516;2023-07-20T14:08:26;3.07;;;1.33;;
12155;SDS011;6141;49.092;8.516;2023-07-20T14:10:56;3.23;;;1.20;;
12155;SDS011;6141;49.092;8.516;2023-07-20T14:13:27;1.80;;;1.30;;
12155;SDS011;6141;49.092;8.516;2023-07-20T14:16:12;1.43;;;1.20;;
12155;SDS011;6141;49.092;8.516;2023-07-20T14:18:42;1.47;;;1.20;;
12155;SDS011;6141;49.092;8.516;2023-07-20T14:21:15;4.10;;;1.33;;
12155;SDS011;6141;49.092;8.516;2023-07-20T14:23:44;2.37;;;1.10;;
12155;SDS011;6141;49.092;8.516;2023-07-20T14:26:13;1.57;;;1.10;;
12155;SDS011;6141;49.092;8.516;2023-07-20T14:28:41;1.37;;;1.20;;
12155;SDS011;6141;49.092;8.516;2023-07-20T14:31:09;1.47;;;1.20;;
12155;SDS011;6141;49.092;8.516;2023-07-20T14:33:38;1.60;;;1.20;;
12155;SDS011;6141;49.092;8.516;2023-07-20T14:36:08;1.37;;;1.27;;
12155;SDS011;6141;49.092;8.516;2023-07-20T14:38:37;1.83;;;1.10;;
12155;SDS011;6141;49.092;8.516;2023-07-20T14:41:06;1.90;;;1.33;;
12155;SDS011;6141;49.092;8.516;2023-07-20T14:43:36;1.77;;;1.10;;
12155;SDS011;6141;49.092;8.516;2023-07-20T14:46:05;2.30;;;1.37;;
12155;SDS011;6141;49.092;8.516;2023-07-20T14:48:33;2.57;;;1.10;;
12155;SDS011;6141;49.092;8.516;2023-07-20T14:51:01;2.10;;;1.10;;
12155;SDS011;6141;49.092;8.516;2023-07-20T14:53:32;1.67;;;1.10;;
12155;SDS011;6141;49.092;8.516;2023-07-20T14:56:02;2.20;;;1.23;;
12155;SDS011;6141;49.092;8.516;2023-07-20T14:58:31;2.83;;;1.20;;
12155;SDS011;6141;49.092;8.516;2023-07-20T15:01:01;1.70;;;1.10;;
12155;SDS011;6141;49.092;8.516;2023-07-20T15:03:30;1.57;;;1.30;;
12155;SDS011;6141;49.092;8.516;2023-07-20T15:05:59;4.83;;;1.20;;
12155;SDS011;6141;49.092;8.516;2023-07-20T15:08:27;1.53;;;1.10;;
12155;SDS011;6141;49.092;8.516;2023-07-20T15:10:56;1.40;;;1.30;;
12155;SDS011;6141;49.092;8.516;2023-07-20T15:13:25;2.53;;;1.20;;
12155;SDS011;6141;49.092;8.516;2023-07-20T15:15:53;3.07;;;1.33;;